createdAt,value
2017-10-18T07:08:26.547Z,11.42
2017-10-18T07:09:31.025Z,11.42
2017-10-18T07:10:35.347Z,11.48
2017-10-18T07:11:38.911Z,11.46
2017-10-18T07:12:42.488Z,11.54
2017-10-18T07:13:46.506Z,11.49
2017-10-18T07:14:50.818Z,11.64
2017-10-18T07:15:54.917Z,11.70
2017-10-18T07:16:59.910Z,11.66
2017-10-18T07:18:01.976Z,11.85
2017-10-18T07:19:05.611Z,11.84
2017-10-18T07:20:08.121Z,11.90
2017-10-18T07:21:11.669Z,11.96
2017-10-18T07:22:14.517Z,12.07
2017-10-18T07:23:16.757Z,12.05
2017-10-18T07:24:20.360Z,12.15
2017-10-18T07:25:22.845Z,12.29
2017-10-18T07:26:25.270Z,12.31
2017-10-18T08:47:37.275Z,17.63
2017-10-18T08:48:40.830Z,17.74
2017-10-18T08:49:44.891Z,17.76
2017-10-18T08:50:48.483Z,17.79
2017-10-18T08:51:52.153Z,17.79
2017-10-18T08:52:55.739Z,17.74
2017-10-18T08:53:59.285Z,17.74
2017-10-18T08:55:02.894Z,17.71
2017-10-18T08:56:06.342Z,17.49
2017-10-18T08:57:10.310Z,17.54
2017-10-18T08:58:14.495Z,17.55
2017-10-18T08:59:18.906Z,17.70
2017-10-18T09:00:22.326Z,17.81
2017-10-18T09:01:25.861Z,18.14
2017-10-18T09:02:29.471Z,18.35
2017-10-18T09:03:33.151Z,18.47
2017-10-18T09:04:37.478Z,18.71
2017-10-18T09:05:40.985Z,18.82
2017-10-18T09:06:44.453Z,19.09
2017-10-18T09:07:48.026Z,19.12
2017-10-18T09:08:51.522Z,19.31
2017-10-18T09:09:55.144Z,19.52
2017-10-18T09:10:58.707Z,19.70
2017-10-18T09:12:02.323Z,19.82
